sensor_id;sensor_type;location;lat;lon;timestamp;temperature;humidity
1383;DHT22;685;47.196;11.880;2023-05-29T00:01:38;15.60;99.90
1383;DHT22;685;47.196;11.880;2023-05-29T00:04:06;15.60;99.90
1383;DHT22;685;47.196;11.880;2023-05-29T00:06:34;15.60;99.90
1383;DHT22;685;47.196;11.880;2023-05-29T00:09:02;15.50;99.90
1383;DHT22;685;47.196;11.880;2023-05-29T00:11:29;15.50;99.90
1383;DHT22;685;47.196;11.880;2023-05-29T00:13:56;15.20;99.90
1383;DHT22;685;47.196;11.880;2023-05-29T00:16:24;15.20;99.90
1383;DHT22;685;47.196;11.880;2023-05-29T00:18:51;15.30;99.90
1383;DHT22;685;47.196;11.880;2023-05-29T00:21:19;15.30;99.90
1383;DHT22;685;47.196;11.880;2023-05-29T00:23:47;15.30;99.90
1383;DHT22;685;47.196;11.880;2023-05-29T00:26:14;15.30;99.90
1383;DHT22;685;47.196;11.880;2023-05-29T00:28:42;15.30;99.90
1383;DHT22;685;47.196;11.880;2023-05-29T00:31:09;15.30;99.90
1383;DHT22;685;47.196;11.880;2023-05-29T00:33:37;15.30;99.90
1383;DHT22;685;47.196;11.880;2023-05-29T00:36:04;15.00;99.90
1383;DHT22;685;47.196;11.880;2023-05-29T00:38:32;14.90;99.90
1383;DHT22;685;47.196;11.880;2023-05-29T00:41:00;15.00;99.90
1383;DHT22;685;47.196;11.880;2023-05-29T00:43:28;15.00;99.90
1383;DHT22;685;47.196;11.880;2023-05-29T00:45:55;15.00;99.90
1383;DHT22;685;47.196;11.880;2023-05-29T00:48:22;15.00;99.90
1383;DHT22;685;47.196;11.880;2023-05-29T00:50:49;14.80;99.90
1383;DHT22;685;47.196;11.880;2023-05-29T00:53:17;14.60;99.90
1383;DHT22;685;47.196;11.880;2023-05-29T00:55:44;14.40;99.90
1383;DHT22;685;47.196;11.880;2023-05-29T00:58:13;14.30;99.90
1383;DHT22;685;47.196;11.880;2023-05-29T01:00:40;14.30;99.90
1383;DHT22;685;47.196;11.880;2023-05-29T01:03:08;14.30;99.90
1383;DHT22;685;47.196;11.880;2023-05-29T01:05:36;14.50;99.90
1383;DHT22;685;47.196;11.880;2023-05-29T01:08:03;14.60;99.90
1383;DHT22;685;47.196;11.880;2023-05-29T01:10:30;14.60;99.90
1383;DHT22;685;47.196;11.880;2023-05-29T01:13:03;14.60;99.90
1383;DHT22;685;47.196;11.880;2023-05-29T01:15:40;14.70;99.90
1383;DHT22;685;47.196;11.880;2023-05-29T01:18:30;14.70;99.90
1383;DHT22;685;47.196;11.880;2023-05-29T01:21:05;14.70;99.90
1383;DHT22;685;47.196;11.880;2023-05-29T01:24:02;14.60;99.90
1383;DHT22;685;47.196;11.880;2023-05-29T01:26:50;14.60;99.90
1383;DHT22;685;47.196;11.880;2023-05-29T01:29:19;14.50;99.90
1383;DHT22;685;47.196;11.880;2023-05-29T01:31:49;14.50;99.90
1383;DHT22;685;47.196;11.880;2023-05-29T01:34:16;14.50;99.90
1383;DHT22;685;47.196;11.880;2023-05-29T01:36:43;14.50;99.90
1383;DHT22;685;47.196;11.880;2023-05-29T01:39:12;14.50;99.90
1383;DHT22;685;47.196;11.880;2023-05-29T01:41:40;14.50;99.90
1383;DHT22;685;47.196;11.880;2023-05-29T01:44:09;14.20;99.90
1383;DHT22;685;47.196;11.880;2023-05-29T01:46:38;14.20;99.90
1383;DHT22;685;47.196;11.880;2023-05-29T01:49:05;14.30;99.90
1383;DHT22;685;47.196;11.880;2023-05-29T01:51:32;14.30;99.90
1383;DHT22;685;47.196;11.880;2023-05-29T01:53:59;14.40;99.90
1383;DHT22;685;47.196;11.880;2023-05-29T01:56:27;14.30;99.90
1383;DHT22;685;47.196;11.880;2023-05-29T01:58:55;14.30;99.90
1383;DHT22;685;47.196;11.880;2023-05-29T02:01:24;14.40;99.90
1383;DHT22;685;47.196;11.880;2023-05-29T02:03:51;14.20;99.90
1383;DHT22;685;47.196;11.880;2023-05-29T02:06:19;14.20;99.90
1383;DHT22;685;47.196;11.880;2023-05-29T02:08:46;14.20;99.90
1383;DHT22;685;47.196;11.880;2023-05-29T02:11:13;14.20;99.90
1383;DHT22;685;47.196;11.880;2023-05-29T02:13:41;14.20;99.90
1383;DHT22;685;47.196;11.880;2023-05-29T02:16:08;14.30;99.90
1383;DHT22;685;47.196;11.880;2023-05-29T02:18:36;14.30;99.90
1383;DHT22;685;47.196;11.880;2023-05-29T02:21:03;14.40;99.90
1383;DHT22;685;47.196;11.880;2023-05-29T02:23:30;14.40;99.90
1383;DHT22;685;47.196;11.880;2023-05-29T02:25:57;14.50;99.90
1383;DHT22;685;47.196;11.880;2023-05-29T02:28:24;14.50;99.90
1383;DHT22;685;47.196;11.880;2023-05-29T02:30:51;14.50;99.90
1383;DHT22;685;47.196;11.880;2023-05-29T02:33:18;14.40;99.90
1383;DHT22;685;47.196;11.880;2023-05-29T02:35:46;14.10;99.90
1383;DHT22;685;47.196;11.880;2023-05-29T02:38:13;13.80;99.90
1383;DHT22;685;47.196;11.880;2023-05-29T02:40:40;13.80;99.90
1383;DHT22;685;47.196;11.880;2023-05-29T02:43:12;13.80;99.90
1383;DHT22;685;47.196;11.880;2023-05-29T02:45:39;13.90;99.90
1383;DHT22;685;47.196;11.880;2023-05-29T02:48:06;14.00;99.90
1383;DHT22;685;47.196;11.880;2023-05-29T02:50:33;14.10;99.90
1383;DHT22;685;47.196;11.880;2023-05-29T02:53:01;14.20;99.90
1383;DHT22;685;47.196;11.880;2023-05-29T02:55:28;14.20;99.90
1383;DHT22;685;47.196;11.880;2023-05-29T02:57:57;14.30;99.90
1383;DHT22;685;47.196;11.880;2023-05-29T03:00:25;14.30;99.90
1383;DHT22;685;47.196;11.880;2023-05-29T03:02:54;14.30;99.90
1383;DHT22;685;47.196;11.880;2023-05-29T03:05:21;14.40;99.90
1383;DHT22;685;47.196;11.880;2023-05-29T03:07:48;14.40;99.90
1383;DHT22;685;47.196;11.880;2023-05-29T03:10:17;14.30;99.90
1383;DHT22;685;47.196;11.880;2023-05-29T03:12:44;14.30;99.90
1383;DHT22;685;47.196;11.880;2023-05-29T03:15:11;14.40;99.90
1383;DHT22;685;47.196;11.880;2023-05-29T03:17:38;14.40;99.90
1383;DHT22;685;47.196;11.880;2023-05-29T03:20:06;14.40;99.90
1383;DHT22;685;47.196;11.880;2023-05-29T03:22:34;14.30;99.90
1383;DHT22;685;47.196;11.880;2023-05-29T03:25:01;14.30;99.90
1383;DHT22;685;47.196;11.880;2023-05-29T03:27:30;14.30;99.90
1383;DHT22;685;47.196;11.880;2023-05-29T03:29:58;14.20;99.90
1383;DHT22;685;47.196;11.880;2023-05-29T03:32:25;14.10;99.90
1383;DHT22;685;47.196;11.880;2023-05-29T03:34:52;14.10;99.90
1383;DHT22;685;47.196;11.880;2023-05-29T03:37:19;14.00;99.90
1383;DHT22;685;47.196;11.880;2023-05-29T03:39:45;13.90;99.90
1383;DHT22;685;47.196;11.880;2023-05-29T03:42:13;13.90;99.90
1383;DHT22;685;47.196;11.880;2023-05-29T03:44:42;14.00;99.90
1383;DHT22;685;47.196;11.880;2023-05-29T03:47:08;14.00;99.90
1383;DHT22;685;47.196;11.880;2023-05-29T03:49:35;13.90;99.90
1383;DHT22;685;47.196;11.880;2023-05-29T03:52:03;14.00;99.90
1383;DHT22;685;47.196;11.880;2023-05-29T03:54:30;13.90;99.90
1383;DHT22;685;47.196;11.880;2023-05-29T03:56:56;13.70;99.90
1383;DHT22;685;47.196;11.880;2023-05-29T03:59:23;13.70;99.90
1383;DHT22;685;47.196;11.880;2023-05-29T04:01:52;13.70;99.90
1383;DHT22;685;47.196;11.880;2023-05-29T04:04:19;13.70;99.90
1383;DHT22;685;47.196;11.880;2023-05-29T04:06:45;13.80;99.90
1383;DHT22;685;47.196;11.880;2023-05-29T04:09:12;13.80;99.90
1383;DHT22;685;47.196;11.880;2023-05-29T04:11:39;13.90;99.90
1383;DHT22;685;47.196;11.880;2023-05-29T04:14:07;13.90;99.90
1383;DHT22;685;47.196;11.880;2023-05-29T04:16:34;14.00;99.90
1383;DHT22;685;47.196;11.880;2023-05-29T04:19:02;14.00;99.90
1383;DHT22;685;47.196;11.880;2023-05-29T04:21:29;14.00;99.90
1383;DHT22;685;47.196;11.880;2023-05-29T04:23:58;14.00;99.90
1383;DHT22;685;47.196;11.880;2023-05-29T04:26:25;14.00;99.90
1383;DHT22;685;47.196;11.880;2023-05-29T04:28:52;14.00;99.90
1383;DHT22;685;47.196;11.880;2023-05-29T04:31:23;13.90;99.90
1383;DHT22;685;47.196;11.880;2023-05-29T04:33:51;13.90;99.90
1383;DHT22;685;47.196;11.880;2023-05-29T04:36:22;13.90;99.90
1383;DHT22;685;47.196;11.880;2023-05-29T04:38:52;14.00;99.90
1383;DHT22;685;47.196;11.880;2023-05-29T04:41:19;14.00;99.90
1383;DHT22;685;47.196;11.880;2023-05-29T04:43:49;14.00;99.90
1383;DHT22;685;47.196;11.880;2023-05-29T04:46:16;14.00;99.90
1383;DHT22;685;47.196;11.880;2023-05-29T04:48:43;13.90;99.90
1383;DHT22;685;47.196;11.880;2023-05-29T04:51:10;13.70;99.90
1383;DHT22;685;47.196;11.880;2023-05-29T04:53:39;13.60;99.90
1383;DHT22;685;47.196;11.880;2023-05-29T04:56:07;13.40;99.90
1383;DHT22;685;47.196;11.880;2023-05-29T04:58:33;13.50;99.90
1383;DHT22;685;47.196;11.880;2023-05-29T05:01:00;13.40;99.90
1383;DHT22;685;47.196;11.880;2023-05-29T05:03:29;13.40;99.90
1383;DHT22;685;47.196;11.880;2023-05-29T05:05:56;13.40;99.90
1383;DHT22;685;47.196;11.880;2023-05-29T05:08:23;13.30;99.90
1383;DHT22;685;47.196;11.880;2023-05-29T05:10:52;13.30;99.90
1383;DHT22;685;47.196;11.880;2023-05-29T05:13:19;13.40;99.90
1383;DHT22;685;47.196;11.880;2023-05-29T05:15:46;13.40;99.90
1383;DHT22;685;47.196;11.880;2023-05-29T05:18:12;13.40;99.90
1383;DHT22;685;47.196;11.880;2023-05-29T05:20:40;13.40;99.90
1383;DHT22;685;47.196;11.880;2023-05-29T05:23:07;13.50;99.90
1383;DHT22;685;47.196;11.880;2023-05-29T05:25:33;13.60;99.90
1383;DHT22;685;47.196;11.880;2023-05-29T05:28:02;13.80;99.90
1383;DHT22;685;47.196;11.880;2023-05-29T05:30:29;14.00;99.90
1383;DHT22;685;47.196;11.880;2023-05-29T05:32:56;14.00;99.90
1383;DHT22;685;47.196;11.880;2023-05-29T05:35:24;14.10;99.90
1383;DHT22;685;47.196;11.880;2023-05-29T05:37:50;14.10;99.90
1383;DHT22;685;47.196;11.880;2023-05-29T05:40:18;14.20;99.90
1383;DHT22;685;47.196;11.880;2023-05-29T05:42:45;14.10;99.90
1383;DHT22;685;47.196;11.880;2023-05-29T05:45:13;14.10;99.90
1383;DHT22;685;47.196;11.880;2023-05-29T05:47:40;14.10;99.90
1383;DHT22;685;47.196;11.880;2023-05-29T05:50:08;14.10;99.90
1383;DHT22;685;47.196;11.880;2023-05-29T05:52:35;14.20;99.90
1383;DHT22;685;47.196;11.880;2023-05-29T05:55:02;14.30;99.90
1383;DHT22;685;47.196;11.880;2023-05-29T05:57:29;14.40;99.90
1383;DHT22;685;47.196;11.880;2023-05-29T05:59:58;14.50;99.90
1383;DHT22;685;47.196;11.880;2023-05-29T06:02:27;14.60;99.90
1383;DHT22;685;47.196;11.880;2023-05-29T06:04:53;14.60;99.90
1383;DHT22;685;47.196;11.880;2023-05-29T06:07:20;14.60;99.90
1383;DHT22;685;47.196;11.880;2023-05-29T06:09:48;14.60;99.90
1383;DHT22;685;47.196;11.880;2023-05-29T06:12:15;14.60;99.90
1383;DHT22;685;47.196;11.880;2023-05-29T06:14:42;14.60;99.90
1383;DHT22;685;47.196;11.880;2023-05-29T06:17:09;14.50;99.90
1383;DHT22;685;47.196;11.880;2023-05-29T06:19:38;14.50;99.90
1383;DHT22;685;47.196;11.880;2023-05-29T06:22:05;14.70;99.90
1383;DHT22;685;47.196;11.880;2023-05-29T06:24:32;14.50;99.90
1383;DHT22;685;47.196;11.880;2023-05-29T06:26:59;14.60;99.90
1383;DHT22;685;47.196;11.880;2023-05-29T06:29:27;14.70;99.90
1383;DHT22;685;47.196;11.880;2023-05-29T06:31:53;14.70;99.90
1383;DHT22;685;47.196;11.880;2023-05-29T06:34:20;14.80;99.90
1383;DHT22;685;47.196;11.880;2023-05-29T06:36:49;14.90;99.90
1383;DHT22;685;47.196;11.880;2023-05-29T06:39:16;14.90;99.90
1383;DHT22;685;47.196;11.880;2023-05-29T06:41:43;15.10;99.90
1383;DHT22;685;47.196;11.880;2023-05-29T06:44:10;15.20;99.90
1383;DHT22;685;47.196;11.880;2023-05-29T06:46:37;15.20;99.90
1383;DHT22;685;47.196;11.880;2023-05-29T06:49:04;15.20;99.90
1383;DHT22;685;47.196;11.880;2023-05-29T06:51:32;15.30;99.90
1383;DHT22;685;47.196;11.880;2023-05-29T06:54:01;15.30;99.90
1383;DHT22;685;47.196;11.880;2023-05-29T06:56:28;15.40;99.90
1383;DHT22;685;47.196;11.880;2023-05-29T06:58:55;15.50;99.90
1383;DHT22;685;47.196;11.880;2023-05-29T07:01:23;15.60;99.90
1383;DHT22;685;47.196;11.880;2023-05-29T07:03:52;15.60;99.90
1383;DHT22;685;47.196;11.880;2023-05-29T07:06:19;15.60;99.90
1383;DHT22;685;47.196;11.880;2023-05-29T07:08:46;15.70;99.90
1383;DHT22;685;47.196;11.880;2023-05-29T07:11:14;15.70;99.90
1383;DHT22;685;47.196;11.880;2023-05-29T07:13:41;15.70;99.90
1383;DHT22;685;47.196;11.880;2023-05-29T07:16:08;15.80;99.90
1383;DHT22;685;47.196;11.880;2023-05-29T07:18:35;15.80;99.90
1383;DHT22;685;47.196;11.880;2023-05-29T07:21:02;15.70;99.90
1383;DHT22;685;47.196;11.880;2023-05-29T07:23:29;15.70;99.90
1383;DHT22;685;47.196;11.880;2023-05-29T07:25:56;15.70;99.90
1383;DHT22;685;47.196;11.880;2023-05-29T07:28:24;15.80;99.90
1383;DHT22;685;47.196;11.880;2023-05-29T07:30:51;15.80;99.90
1383;DHT22;685;47.196;11.880;2023-05-29T07:33:18;15.80;99.90
1383;DHT22;685;47.196;11.880;2023-05-29T07:35:45;15.80;99.90
1383;DHT22;685;47.196;11.880;2023-05-29T07:38:12;15.80;99.90
1383;DHT22;685;47.196;11.880;2023-05-29T07:40:39;15.90;99.90
1383;DHT22;685;47.196;11.880;2023-05-29T07:43:06;16.00;99.90
1383;DHT22;685;47.196;11.880;2023-05-29T07:45:34;16.00;99.90
1383;DHT22;685;47.196;11.880;2023-05-29T07:48:01;16.00;99.90
1383;DHT22;685;47.196;11.880;2023-05-29T07:50:28;16.10;99.90
1383;DHT22;685;47.196;11.880;2023-05-29T07:52:55;16.20;99.90
1383;DHT22;685;47.196;11.880;2023-05-29T07:55:22;16.20;99.90
1383;DHT22;685;47.196;11.880;2023-05-29T07:57:49;16.30;99.90
1383;DHT22;685;47.196;11.880;2023-05-29T08:00:16;16.30;99.90
1383;DHT22;685;47.196;11.880;2023-05-29T08:02:45;16.20;99.90
1383;DHT22;685;47.196;11.880;2023-05-29T08:05:12;16.30;99.90
1383;DHT22;685;47.196;11.880;2023-05-29T08:07:39;16.40;99.90
1383;DHT22;685;47.196;11.880;2023-05-29T08:10:07;16.50;99.90
1383;DHT22;685;47.196;11.880;2023-05-29T08:12:34;16.60;99.90
1383;DHT22;685;47.196;11.880;2023-05-29T08:15:02;16.70;99.90
1383;DHT22;685;47.196;11.880;2023-05-29T08:17:29;16.80;99.90
1383;DHT22;685;47.196;11.880;2023-05-29T08:19:58;16.90;99.90
1383;DHT22;685;47.196;11.880;2023-05-29T08:22:28;17.00;99.90
1383;DHT22;685;47.196;11.880;2023-05-29T08:24:55;17.20;99.90
1383;DHT22;685;47.196;11.880;2023-05-29T08:27:22;17.40;99.90
1383;DHT22;685;47.196;11.880;2023-05-29T08:29:49;17.40;99.90
1383;DHT22;685;47.196;11.880;2023-05-29T08:32:16;17.40;99.90
1383;DHT22;685;47.196;11.880;2023-05-29T08:34:43;17.40;99.90
1383;DHT22;685;47.196;11.880;2023-05-29T08:37:13;17.50;99.90
1383;DHT22;685;47.196;11.880;2023-05-29T08:39:40;17.60;99.90
1383;DHT22;685;47.196;11.880;2023-05-29T08:42:10;17.60;99.90
1383;DHT22;685;47.196;11.880;2023-05-29T08:44:40;17.70;99.90
1383;DHT22;685;47.196;11.880;2023-05-29T08:47:08;17.80;99.90
1383;DHT22;685;47.196;11.880;2023-05-29T08:49:40;17.90;99.90
1383;DHT22;685;47.196;11.880;2023-05-29T08:52:11;18.00;99.90
1383;DHT22;685;47.196;11.880;2023-05-29T08:54:40;18.00;99.90
1383;DHT22;685;47.196;11.880;2023-05-29T08:57:07;18.00;99.90
1383;DHT22;685;47.196;11.880;2023-05-29T08:59:35;18.10;99.90
1383;DHT22;685;47.196;11.880;2023-05-29T09:02:03;18.20;99.90
1383;DHT22;685;47.196;11.880;2023-05-29T09:04:31;18.30;99.90
1383;DHT22;685;47.196;11.880;2023-05-29T09:06:58;18.30;99.90
1383;DHT22;685;47.196;11.880;2023-05-29T09:09:26;18.40;99.90
1383;DHT22;685;47.196;11.880;2023-05-29T09:11:55;18.40;99.90
1383;DHT22;685;47.196;11.880;2023-05-29T09:14:33;18.50;99.90
1383;DHT22;685;47.196;11.880;2023-05-29T09:17:01;18.50;99.90
1383;DHT22;685;47.196;11.880;2023-05-29T09:19:28;18.50;99.90
1383;DHT22;685;47.196;11.880;2023-05-29T09:22:01;18.50;99.90
1383;DHT22;685;47.196;11.880;2023-05-29T09:24:28;18.30;99.90
1383;DHT22;685;47.196;11.880;2023-05-29T09:26:59;18.40;99.90
1383;DHT22;685;47.196;11.880;2023-05-29T09:29:26;18.60;99.90
1383;DHT22;685;47.196;11.880;2023-05-29T09:31:53;18.70;99.90
1383;DHT22;685;47.196;11.880;2023-05-29T09:34:23;18.70;99.90
1383;DHT22;685;47.196;11.880;2023-05-29T09:36:50;18.80;99.90
1383;DHT22;685;47.196;11.880;2023-05-29T09:39:18;18.90;99.90
1383;DHT22;685;47.196;11.880;2023-05-29T09:41:45;19.00;99.90
1383;DHT22;685;47.196;11.880;2023-05-29T09:44:15;19.10;99.90
1383;DHT22;685;47.196;11.880;2023-05-29T09:46:42;19.30;99.90
1383;DHT22;685;47.196;11.880;2023-05-29T09:49:13;19.40;99.90
1383;DHT22;685;47.196;11.880;2023-05-29T09:51:42;19.40;99.90
1383;DHT22;685;47.196;11.880;2023-05-29T09:54:17;19.50;99.90
1383;DHT22;685;47.196;11.880;2023-05-29T09:56:44;19.50;99.90
1383;DHT22;685;47.196;11.880;2023-05-29T09:59:15;19.50;99.90
1383;DHT22;685;47.196;11.880;2023-05-29T10:01:44;19.60;99.90
1383;DHT22;685;47.196;11.880;2023-05-29T10:04:11;19.70;99.90
1383;DHT22;685;47.196;11.880;2023-05-29T10:06:42;19.70;99.90
1383;DHT22;685;47.196;11.880;2023-05-29T10:09:12;19.70;99.90
1383;DHT22;685;47.196;11.880;2023-05-29T10:11:43;19.90;99.90
1383;DHT22;685;47.196;11.880;2023-05-29T10:14:17;20.00;99.90
1383;DHT22;685;47.196;11.880;2023-05-29T10:16:46;20.10;99.90
1383;DHT22;685;47.196;11.880;2023-05-29T10:19:18;20.10;99.90
1383;DHT22;685;47.196;11.880;2023-05-29T10:21:47;20.20;99.90
1383;DHT22;685;47.196;11.880;2023-05-29T10:24:16;20.20;99.90
1383;DHT22;685;47.196;11.880;2023-05-29T10:26:47;20.20;99.90
1383;DHT22;685;47.196;11.880;2023-05-29T10:29:26;20.20;99.90
1383;DHT22;685;47.196;11.880;2023-05-29T10:32:05;20.30;99.90
1383;DHT22;685;47.196;11.880;2023-05-29T10:34:39;20.40;99.90
1383;DHT22;685;47.196;11.880;2023-05-29T10:37:14;20.50;99.90
1383;DHT22;685;47.196;11.880;2023-05-29T10:39:42;20.60;99.90
1383;DHT22;685;47.196;11.880;2023-05-29T10:42:43;20.60;99.90
1383;DHT22;685;47.196;11.880;2023-05-29T10:45:47;20.60;99.90
1383;DHT22;685;47.196;11.880;2023-05-29T10:48:37;20.80;99.90
1383;DHT22;685;47.196;11.880;2023-05-29T10:51:06;20.90;99.90
1383;DHT22;685;47.196;11.880;2023-05-29T10:53:33;21.00;99.90
1383;DHT22;685;47.196;11.880;2023-05-29T10:56:08;21.00;99.90
1383;DHT22;685;47.196;11.880;2023-05-29T10:58:37;21.00;99.90
1383;DHT22;685;47.196;11.880;2023-05-29T11:01:08;21.00;99.90
1383;DHT22;685;47.196;11.880;2023-05-29T11:03:35;21.10;99.90
1383;DHT22;685;47.196;11.880;2023-05-29T11:06:04;21.10;99.90
1383;DHT22;685;47.196;11.880;2023-05-29T11:08:33;21.00;99.90
1383;DHT22;685;47.196;11.880;2023-05-29T11:11:02;21.00;99.90
1383;DHT22;685;47.196;11.880;2023-05-29T11:13:33;21.00;99.90
1383;DHT22;685;47.196;11.880;2023-05-29T11:16:35;20.90;99.90
1383;DHT22;685;47.196;11.880;2023-05-29T11:19:04;21.10;99.90
1383;DHT22;685;47.196;11.880;2023-05-29T11:21:44;21.20;99.90
1383;DHT22;685;47.196;11.880;2023-05-29T11:24:21;21.30;99.90
1383;DHT22;685;47.196;11.880;2023-05-29T11:26:50;21.40;99.90
1383;DHT22;685;47.196;11.880;2023-05-29T11:29:21;21.60;99.90
1383;DHT22;685;47.196;11.880;2023-05-29T11:31:55;21.60;99.90
1383;DHT22;685;47.196;11.880;2023-05-29T11:34:28;21.70;99.90
1383;DHT22;685;47.196;11.880;2023-05-29T11:36:57;21.70;99.90
1383;DHT22;685;47.196;11.880;2023-05-29T11:39:24;21.70;99.90
1383;DHT22;685;47.196;11.880;2023-05-29T11:41:51;21.70;99.90
1383;DHT22;685;47.196;11.880;2023-05-29T11:44:19;21.70;99.90
1383;DHT22;685;47.196;11.880;2023-05-29T11:46:46;21.60;99.90
1383;DHT22;685;47.196;11.880;2023-05-29T11:49:27;21.40;99.90
1383;DHT22;685;47.196;11.880;2023-05-29T11:52:01;21.40;99.90
1383;DHT22;685;47.196;11.880;2023-05-29T11:54:32;21.40;99.90
1383;DHT22;685;47.196;11.880;2023-05-29T11:57:00;21.40;99.90
1383;DHT22;685;47.196;11.880;2023-05-29T11:59:28;21.50;99.90
1383;DHT22;685;47.196;11.880;2023-05-29T12:01:55;21.50;99.90
1383;DHT22;685;47.196;11.880;2023-05-29T12:04:24;21.40;99.90
1383;DHT22;685;47.196;11.880;2023-05-29T12:06:50;21.50;99.90
1383;DHT22;685;47.196;11.880;2023-05-29T12:09:25;21.60;99.90
1383;DHT22;685;47.196;11.880;2023-05-29T12:11:53;21.50;99.90
1383;DHT22;685;47.196;11.880;2023-05-29T12:14:20;21.60;99.90
1383;DHT22;685;47.196;11.880;2023-05-29T12:16:47;21.80;99.90
1383;DHT22;685;47.196;11.880;2023-05-29T12:19:14;21.90;99.90
1383;DHT22;685;47.196;11.880;2023-05-29T12:21:43;21.80;99.90
1383;DHT22;685;47.196;11.880;2023-05-29T12:24:10;22.00;99.90
1383;DHT22;685;47.196;11.880;2023-05-29T12:26:37;22.10;99.90
1383;DHT22;685;47.196;11.880;2023-05-29T12:29:04;22.20;99.90
1383;DHT22;685;47.196;11.880;2023-05-29T12:31:32;22.20;99.90
1383;DHT22;685;47.196;11.880;2023-05-29T12:34:00;22.40;99.90
1383;DHT22;685;47.196;11.880;2023-05-29T12:36:28;22.30;99.90
1383;DHT22;685;47.196;11.880;2023-05-29T12:38:57;22.20;99.90
1383;DHT22;685;47.196;11.880;2023-05-29T12:41:27;22.10;99.90
1383;DHT22;685;47.196;11.880;2023-05-29T12:43:54;22.10;99.90
1383;DHT22;685;47.196;11.880;2023-05-29T12:46:22;22.00;99.90
1383;DHT22;685;47.196;11.880;2023-05-29T12:48:53;22.00;99.90
1383;DHT22;685;47.196;11.880;2023-05-29T12:51:23;22.10;99.90
1383;DHT22;685;47.196;11.880;2023-05-29T12:53:50;22.20;99.90
1383;DHT22;685;47.196;11.880;2023-05-29T12:56:22;22.40;99.90
1383;DHT22;685;47.196;11.880;2023-05-29T12:58:50;22.40;99.90
1383;DHT22;685;47.196;11.880;2023-05-29T13:01:17;22.40;99.90
1383;DHT22;685;47.196;11.880;2023-05-29T13:03:44;22.50;99.90
1383;DHT22;685;47.196;11.880;2023-05-29T13:06:11;22.50;99.90
1383;DHT22;685;47.196;11.880;2023-05-29T13:08:38;22.50;99.90
1383;DHT22;685;47.196;11.880;2023-05-29T13:11:05;22.60;99.90
1383;DHT22;685;47.196;11.880;2023-05-29T13:13:33;22.60;99.90
1383;DHT22;685;47.196;11.880;2023-05-29T13:16:00;22.50;99.90
1383;DHT22;685;47.196;11.880;2023-05-29T13:18:27;22.50;99.90
1383;DHT22;685;47.196;11.880;2023-05-29T13:20:54;22.60;99.50
1383;DHT22;685;47.196;11.880;2023-05-29T13:23:21;22.60;99.90
1383;DHT22;685;47.196;11.880;2023-05-29T13:25:48;22.60;99.20
1383;DHT22;685;47.196;11.880;2023-05-29T13:28:15;22.70;99.90
1383;DHT22;685;47.196;11.880;2023-05-29T13:30:45;22.80;99.90
1383;DHT22;685;47.196;11.880;2023-05-29T13:33:12;22.80;99.90
1383;DHT22;685;47.196;11.880;2023-05-29T13:35:39;22.80;99.90
1383;DHT22;685;47.196;11.880;2023-05-29T13:38:06;23.00;98.40
1383;DHT22;685;47.196;11.880;2023-05-29T13:40:33;23.00;96.90
1383;DHT22;685;47.196;11.880;2023-05-29T13:42:59;23.00;99.30
1383;DHT22;685;47.196;11.880;2023-05-29T13:45:26;23.10;96.20
1383;DHT22;685;47.196;11.880;2023-05-29T13:47:55;23.10;98.30
1383;DHT22;685;47.196;11.880;2023-05-29T13:50:23;23.10;98.80
1383;DHT22;685;47.196;11.880;2023-05-29T13:52:50;23.10;98.20
1383;DHT22;685;47.196;11.880;2023-05-29T13:55:17;23.20;97.50
1383;DHT22;685;47.196;11.880;2023-05-29T13:57:44;23.30;97.80
1383;DHT22;685;47.196;11.880;2023-05-29T14:00:12;23.10;96.40
1383;DHT22;685;47.196;11.880;2023-05-29T14:02:39;23.10;98.30
1383;DHT22;685;47.196;11.880;2023-05-29T14:05:08;23.20;97.90
1383;DHT22;685;47.196;11.880;2023-05-29T14:07:36;23.20;99.90
1383;DHT22;685;47.196;11.880;2023-05-29T14:10:04;23.30;98.10
1383;DHT22;685;47.196;11.880;2023-05-29T14:12:31;23.30;99.90
1383;DHT22;685;47.196;11.880;2023-05-29T14:14:58;23.10;98.30
1383;DHT22;685;47.196;11.880;2023-05-29T14:17:25;23.10;99.90
1383;DHT22;685;47.196;11.880;2023-05-29T14:19:52;23.10;97.80
1383;DHT22;685;47.196;11.880;2023-05-29T14:22:21;23.10;99.90
1383;DHT22;685;47.196;11.880;2023-05-29T14:24:48;22.90;99.40
1383;DHT22;685;47.196;11.880;2023-05-29T14:27:15;22.90;99.90
1383;DHT22;685;47.196;11.880;2023-05-29T14:29:42;22.90;99.90
1383;DHT22;685;47.196;11.880;2023-05-29T14:32:11;22.90;99.50
1383;DHT22;685;47.196;11.880;2023-05-29T14:34:38;22.90;95.80
1383;DHT22;685;47.196;11.880;2023-05-29T14:37:05;22.80;97.80
1383;DHT22;685;47.196;11.880;2023-05-29T14:39:34;22.80;99.90
1383;DHT22;685;47.196;11.880;2023-05-29T14:42:01;22.70;99.90
1383;DHT22;685;47.196;11.880;2023-05-29T14:44:28;22.70;99.90
1383;DHT22;685;47.196;11.880;2023-05-29T14:46:55;22.70;97.30
1383;DHT22;685;47.196;11.880;2023-05-29T14:49:22;22.70;99.90
1383;DHT22;685;47.196;11.880;2023-05-29T14:51:49;22.70;96.00
1383;DHT22;685;47.196;11.880;2023-05-29T14:54:16;22.70;99.90
1383;DHT22;685;47.196;11.880;2023-05-29T14:56:44;22.70;96.50
1383;DHT22;685;47.196;11.880;2023-05-29T14:59:11;22.70;95.10
1383;DHT22;685;47.196;11.880;2023-05-29T15:01:38;22.70;97.20
1383;DHT22;685;47.196;11.880;2023-05-29T15:04:05;22.90;96.70
1383;DHT22;685;47.196;11.880;2023-05-29T15:06:32;22.90;99.90
1383;DHT22;685;47.196;11.880;2023-05-29T15:08:59;22.80;97.40
1383;DHT22;685;47.196;11.880;2023-05-29T15:11:28;22.90;99.90
1383;DHT22;685;47.196;11.880;2023-05-29T15:13:56;22.80;99.10
1383;DHT22;685;47.196;11.880;2023-05-29T15:16:24;22.80;99.90
1383;DHT22;685;47.196;11.880;2023-05-29T15:18:51;22.70;99.90
1383;DHT22;685;47.196;11.880;2023-05-29T15:21:18;22.70;97.60
1383;DHT22;685;47.196;11.880;2023-05-29T15:23:45;22.80;97.70
1383;DHT22;685;47.196;11.880;2023-05-29T15:26:12;22.70;95.40
1383;DHT22;685;47.196;11.880;2023-05-29T15:28:38;22.70;99.90
1383;DHT22;685;47.196;11.880;2023-05-29T15:31:07;22.70;98.20
1383;DHT22;685;47.196;11.880;2023-05-29T15:33:34;22.60;96.90
1383;DHT22;685;47.196;11.880;2023-05-29T15:36:01;22.50;98.70
1383;DHT22;685;47.196;11.880;2023-05-29T15:38:27;22.60;94.80
1383;DHT22;685;47.196;11.880;2023-05-29T15:40:58;22.60;95.60
1383;DHT22;685;47.196;11.880;2023-05-29T15:43:25;22.50;97.80
1383;DHT22;685;47.196;11.880;2023-05-29T15:45:52;22.40;98.00
1383;DHT22;685;47.196;11.880;2023-05-29T15:48:20;22.40;99.90
1383;DHT22;685;47.196;11.880;2023-05-29T15:50:47;22.40;96.50
1383;DHT22;685;47.196;11.880;2023-05-29T15:53:14;22.30;95.90
1383;DHT22;685;47.196;11.880;2023-05-29T15:55:41;22.30;99.10
1383;DHT22;685;47.196;11.880;2023-05-29T15:58:08;22.30;98.90
1383;DHT22;685;47.196;11.880;2023-05-29T16:00:35;22.30;97.20
1383;DHT22;685;47.196;11.880;2023-05-29T16:03:03;22.30;96.90
1383;DHT22;685;47.196;11.880;2023-05-29T16:05:31;22.30;96.80
1383;DHT22;685;47.196;11.880;2023-05-29T16:07:58;22.30;99.00
1383;DHT22;685;47.196;11.880;2023-05-29T16:10:25;22.30;95.60